Time;durP1;ratioP1;P1;durP2;ratioP2;P2;SDS_P1;SDS_P2;PMS_P1;PMS_P2;Temp;Humidity;BMP_temperature;BMP_pressure;BME280_temperature;BME280_humidity;BME280_pressure;Samples;Min_cycle;Max_cycle;Signal;HPM_P1;HPM_P2
2022/09/26 00:02:08;;;;;;;7.68;2.72;;;11.20;99.90;;;;;;5065646;28;20054;-54
2022/09/26 00:04:34;;;;;;;7.05;3.08;;;11.20;99.90;;;;;;5057446;28;20048;-50
2022/09/26 00:07:00;;;;;;;11.45;3.30;;;11.20;99.90;;;;;;5058900;28;20053;-53
2022/09/26 00:09:28;;;;;;;10.07;2.63;;;11.10;99.90;;;;;;5050048;28;20128;-52
2022/09/26 00:12:00;;;;;;;9.05;2.63;;;11.20;99.90;;;;;;5049509;28;20048;-48
2022/09/26 00:14:28;;;;;;;5.68;2.75;;;11.20;99.90;;;;;;5024676;28;20115;-48
2022/09/26 00:16:54;;;;;;;6.40;3.08;;;11.20;99.90;;;;;;5023284;28;20056;-49
2022/09/26 00:19:20;;;;;;;6.18;3.05;;;11.20;99.90;;;;;;5040393;28;20491;-50
2022/09/26 00:21:47;;;;;;;7.18;3.47;;;11.20;99.90;;;;;;5062360;28;20135;-49
2022/09/26 00:24:13;;;;;;;7.53;3.53;;;11.20;99.90;;;;;;5051391;28;20101;-49
2022/09/26 00:26:39;;;;;;;7.88;2.80;;;11.20;99.90;;;;;;5055120;28;20055;-51
2022/09/26 00:29:08;;;;;;;10.85;3.75;;;11.20;99.90;;;;;;5050479;28;20048;-50
2022/09/26 00:31:38;;;;;;;6.63;2.75;;;11.20;99.90;;;;;;5029419;28;20052;-50
2022/09/26 00:34:04;;;;;;;7.07;2.88;;;11.20;99.90;;;;;;5061675;28;20411;-50
2022/09/26 00:36:30;;;;;;;9.30;3.13;;;11.20;99.90;;;;;;5045694;28;20048;-49
2022/09/26 00:38:55;;;;;;;5.38;2.75;;;11.20;99.90;;;;;;5044307;28;20044;-48
2022/09/26 00:41:22;;;;;;;8.05;3.00;;;11.20;99.90;;;;;;5056081;28;20427;-48
2022/09/26 00:43:53;;;;;;;8.48;3.10;;;11.20;99.90;;;;;;5062396;28;20143;-48
2022/09/26 00:46:41;;;;;;;5.57;2.63;;;11.20;99.90;;;;;;5056002;28;20471;-49
2022/09/26 00:49:29;;;;;;;7.43;2.92;;;11.20;99.90;;;;;;5054833;28;20052;-48
2022/09/26 00:52:08;;;;;;;5.18;2.88;;;11.20;99.90;;;;;;5050516;28;20064;-48
2022/09/26 00:54:37;;;;;;;6.72;3.00;;;11.20;99.90;;;;;;5038872;28;20055;-48
2022/09/26 00:57:09;;;;;;;8.63;3.10;;;11.10;99.90;;;;;;5051924;28;20131;-50
2022/09/26 00:59:40;;;;;;;6.28;3.20;;;11.10;99.90;;;;;;5054941;28;20048;-48
2022/09/26 01:02:06;;;;;;;7.13;2.80;;;11.20;99.90;;;;;;5040300;28;20080;-51
2022/09/26 01:04:36;;;;;;;6.50;3.05;;;11.10;99.90;;;;;;5048956;28;20111;-50
2022/09/26 01:07:07;;;;;;;12.50;3.85;;;11.10;99.90;;;;;;5047419;28;20150;-51
2022/09/26 01:09:33;;;;;;;5.50;2.88;;;11.10;99.90;;;;;;5049174;28;20138;-49
2022/09/26 01:12:05;;;;;;;7.45;2.63;;;11.10;99.90;;;;;;5044143;28;20398;-51
2022/09/26 01:14:33;;;;;;;9.32;3.05;;;11.10;99.90;;;;;;5054137;28;20087;-51
2022/09/26 01:16:59;;;;;;;7.65;2.88;;;11.10;99.90;;;;;;5043926;28;20353;-50
2022/09/26 01:19:27;;;;;;;5.03;3.00;;;11.10;99.90;;;;;;5052397;28;20059;-49
2022/09/26 01:22:18;;;;;;;4.05;2.40;;;11.10;99.90;;;;;;5055703;28;20053;-51
2022/09/26 01:24:53;;;;;;;8.50;2.92;;;11.00;99.90;;;;;;5040910;28;20148;-48
2022/09/26 01:27:49;;;;;;;6.00;2.38;;;11.00;99.90;;;;;;5049026;28;20605;-52
2022/09/26 01:30:26;;;;;;;6.40;2.83;;;11.00;99.90;;;;;;5058503;28;20509;-48
2022/09/26 01:33:30;;;;;;;7.68;3.05;;;11.00;99.90;;;;;;5060354;28;20083;-52
2022/09/26 01:36:35;;;;;;;5.35;2.97;;;11.00;99.90;;;;;;5041498;28;20514;-48
2022/09/26 01:39:31;;;;;;;7.82;3.00;;;11.10;99.90;;;;;;5050384;28;20059;-50
2022/09/26 01:41:57;;;;;;;5.05;3.10;;;11.00;99.90;;;;;;5023430;28;20064;-51
2022/09/26 01:45:10;;;;;;;8.35;3.40;;;11.00;99.90;;;;;;5028261;28;20063;-49
2022/09/26 01:48:01;;;;;;;10.00;3.47;;;11.10;99.90;;;;;;4945390;28;20063;-48
2022/09/26 01:50:33;;;;;;;7.45;3.85;;;11.00;99.90;;;;;;4887873;29;20213;-51
2022/09/26 01:53:17;;;;;;;9.00;3.90;;;11.10;99.90;;;;;;4908792;29;20091;-49
2022/09/26 01:55:53;;;;;;;8.43;3.92;;;11.00;99.90;;;;;;4916887;29;20102;-48
2022/09/26 01:59:00;;;;;;;6.78;3.67;;;11.00;99.90;;;;;;4921167;29;20082;-49
2022/09/26 02:01:34;;;;;;;6.90;4.03;;;11.10;99.90;;;;;;4870123;29;20060;-49
2022/09/26 02:04:03;;;;;;;;;;;11.10;99.90;;;;;;4870879;29;20405;-49
2022/09/26 02:06:52;;;;;;;7.45;4.10;;;11.00;99.90;;;;;;4883235;29;19943;-49
2022/09/26 02:09:33;;;;;;;9.15;3.85;;;11.10;99.90;;;;;;4883817;29;20646;-49
2022/09/26 02:12:04;;;;;;;8.82;4.63;;;11.10;99.90;;;;;;4854357;29;20144;-50
2022/09/26 02:14:33;;;;;;;6.32;3.85;;;11.00;99.90;;;;;;4883954;29;20056;-48
2022/09/26 02:17:06;;;;;;;8.98;3.78;;;11.00;99.90;;;;;;4867611;29;20104;-49
2022/09/26 02:19:42;;;;;;;5.45;3.78;;;11.00;99.90;;;;;;4867626;29;20070;-49
2022/09/26 02:22:08;;;;;;;9.05;4.03;;;10.90;99.90;;;;;;4893587;28;20099;-50
2022/09/26 02:24:35;;;;;;;10.40;4.70;;;11.00;99.90;;;;;;4958585;28;20680;-50
2022/09/26 02:27:01;;;;;;;7.57;3.92;;;10.90;99.90;;;;;;4963489;28;20062;-49
2022/09/26 02:29:27;;;;;;;7.28;3.83;;;10.90;99.90;;;;;;4989161;28;20093;-53
2022/09/26 02:32:01;;;;;;;11.10;4.30;;;10.90;99.90;;;;;;5012991;28;20117;-50
2022/09/26 02:34:28;;;;;;;8.07;4.50;;;10.90;99.90;;;;;;5060866;28;20059;-48
2022/09/26 02:36:56;;;;;;;8.13;4.53;;;10.90;99.90;;;;;;5050602;28;20466;-51
2022/09/26 02:39:23;;;;;;;8.98;4.40;;;10.90;99.90;;;;;;5062283;28;20057;-49
2022/09/26 02:42:03;;;;;;;9.38;4.32;;;10.80;99.90;;;;;;5061906;28;20055;-52
2022/09/26 02:44:54;;;;;;;10.07;5.00;;;10.90;99.90;;;;;;5033644;28;20478;-49
2022/09/26 02:47:53;;;;;;;7.97;4.97;;;10.80;99.90;;;;;;5046842;28;20053;-49
2022/09/26 02:51:03;;;;;;;8.50;5.53;;;10.90;99.90;;;;;;5054173;28;20060;-49
2022/09/26 02:53:48;;;;;;;10.00;4.95;;;10.90;99.90;;;;;;4965430;28;20472;-48
2022/09/26 02:56:23;;;;;;;10.73;5.28;;;10.80;99.90;;;;;;4933526;28;20062;-49
2022/09/26 02:59:13;;;;;;;13.45;5.40;;;10.90;99.90;;;;;;4951507;28;20295;-49
2022/09/26 03:02:16;;;;;;;8.77;6.05;;;10.90;99.90;;;;;;4972054;28;20062;-49
2022/09/26 03:04:57;;;;;;;13.23;5.53;;;10.90;99.90;;;;;;4952626;28;20578;-49
2022/09/26 03:07:36;;;;;;;10.50;6.15;;;10.90;99.90;;;;;;4978632;28;20559;-49
2022/09/26 03:10:04;;;;;;;9.50;6.35;;;10.90;99.90;;;;;;4973797;28;20165;-48
2022/09/26 03:12:31;;;;;;;10.82;6.45;;;10.90;99.90;;;;;;4968254;28;20046;-48
2022/09/26 03:14:59;;;;;;;12.48;6.32;;;10.90;99.90;;;;;;4969517;28;20619;-50
2022/09/26 03:17:25;;;;;;;7.28;6.30;;;11.00;99.90;;;;;;4961750;28;20103;-48
2022/09/26 03:20:03;;;;;;;10.27;6.60;;;11.00;99.90;;;;;;4977094;28;20473;-49
2022/09/26 03:22:29;;;;;;;11.30;6.47;;;11.00;99.90;;;;;;4973589;28;20478;-49
2022/09/26 03:24:58;;;;;;;14.57;8.85;;;10.90;99.90;;;;;;4961649;28;20058;-49
2022/09/26 03:27:24;;;;;;;13.32;7.15;;;10.90;99.90;;;;;;4993248;28;20127;-47
2022/09/26 03:29:50;;;;;;;13.20;6.80;;;10.90;99.90;;;;;;5060082;28;20178;-49
2022/09/26 03:32:15;;;;;;;12.20;7.20;;;10.90;99.90;;;;;;5058583;28;20072;-47
2022/09/26 03:34:41;;;;;;;10.60;7.05;;;10.90;99.90;;;;;;5039580;28;20512;-49
2022/09/26 03:37:07;;;;;;;10.98;6.85;;;10.90;99.90;;;;;;5058277;28;20510;-48
2022/09/26 03:39:36;;;;;;;10.32;6.55;;;10.90;99.90;;;;;;5049388;28;20045;-48
2022/09/26 03:42:08;;;;;;;9.00;6.47;;;10.90;99.90;;;;;;5047241;28;20453;-48
2022/09/26 03:44:34;;;;;;;11.25;6.43;;;10.90;99.90;;;;;;5059298;28;20067;-49
2022/09/26 03:46:59;;;;;;;7.55;6.25;;;10.90;99.90;;;;;;5053261;28;20138;-48
2022/09/26 03:49:25;;;;;;;10.50;6.65;;;10.90;99.90;;;;;;5053731;28;20056;-52
2022/09/26 03:51:51;;;;;;;8.68;6.32;;;10.90;99.90;;;;;;5041470;28;20061;-52
2022/09/26 03:54:17;;;;;;;7.95;6.13;;;10.90;99.90;;;;;;5026208;28;20770;-48
2022/09/26 03:56:43;;;;;;;10.15;6.07;;;10.90;99.90;;;;;;5043363;28;20056;-52
2022/09/26 03:59:09;;;;;;;12.10;6.10;;;10.90;99.90;;;;;;5043511;28;20052;-51
2022/09/26 04:01:34;;;;;;;7.25;5.75;;;10.80;99.90;;;;;;5043109;28;20045;-50
2022/09/26 04:04:00;;;;;;;10.23;6.95;;;10.90;99.90;;;;;;5042661;28;20044;-49
2022/09/26 04:06:26;;;;;;;9.80;6.82;;;10.80;99.90;;;;;;5024402;28;20231;-48
2022/09/26 04:08:52;;;;;;;8.02;6.55;;;10.80;99.90;;;;;;5041619;28;20494;-50
2022/09/26 04:11:20;;;;;;;9.23;6.60;;;10.90;99.90;;;;;;5043724;28;20053;-47
2022/09/26 04:13:46;;;;;;;9.07;6.63;;;10.80;99.90;;;;;;5039279;28;20041;-47
2022/09/26 04:16:12;;;;;;;7.45;6.68;;;10.80;99.90;;;;;;5053127;28;20044;-49
2022/09/26 04:18:38;;;;;;;9.55;6.88;;;10.80;99.90;;;;;;5055057;28;20373;-49
2022/09/26 04:21:09;;;;;;;11.02;7.50;;;10.80;99.90;;;;;;5042995;28;20053;-49
2022/09/26 04:23:37;;;;;;;11.60;8.05;;;10.80;99.90;;;;;;5058110;28;20044;-48
2022/09/26 04:26:15;;;;;;;8.05;7.20;;;10.80;99.90;;;;;;5025042;28;20049;-49
2022/09/26 04:28:41;;;;;;;13.73;7.85;;;10.90;99.90;;;;;;5048158;28;20053;-48
2022/09/26 04:31:09;;;;;;;9.38;7.70;;;10.90;99.90;;;;;;5049661;28;20048;-49
2022/09/26 04:33:38;;;;;;;11.23;7.70;;;10.80;99.90;;;;;;5059237;28;20145;-49
2022/09/26 04:36:09;;;;;;;10.38;7.10;;;10.80;99.90;;;;;;5039088;28;20588;-48
2022/09/26 04:38:35;;;;;;;9.90;7.15;;;10.80;99.90;;;;;;5043177;28;20450;-47
2022/09/26 04:41:06;;;;;;;10.82;7.93;;;10.70;99.90;;;;;;5042667;28;20049;-47
2022/09/26 04:43:32;;;;;;;10.77;7.13;;;10.80;99.90;;;;;;5049050;28;20139;-48
2022/09/26 04:45:58;;;;;;;10.57;7.65;;;10.80;99.90;;;;;;5047876;28;20061;-47
2022/09/26 04:48:24;;;;;;;9.35;7.40;;;10.80;99.90;;;;;;5043238;28;20049;-48
2022/09/26 04:50:50;;;;;;;10.95;7.75;;;10.80;99.90;;;;;;5023948;28;20131;-49
2022/09/26 04:53:16;;;;;;;9.48;8.43;;;10.80;99.90;;;;;;5049184;28;20041;-49
2022/09/26 04:55:46;;;;;;;10.52;8.20;;;10.70;99.90;;;;;;5037423;28;20160;-50
2022/09/26 04:58:14;;;;;;;14.23;8.85;;;10.70;99.90;;;;;;5049448;28;20663;-50
2022/09/26 05:00:46;;;;;;;10.85;8.25;;;10.70;99.90;;;;;;5043291;28;20044;-49
2022/09/26 05:03:16;;;;;;;9.57;7.85;;;10.70;99.90;;;;;;5051804;28;20094;-50
2022/09/26 05:05:46;;;;;;;9.55;8.07;;;10.70;99.90;;;;;;5042451;28;20145;-49
2022/09/26 05:08:13;;;;;;;12.88;7.18;;;10.70;99.90;;;;;;5060383;28;20071;-52
2022/09/26 05:10:40;;;;;;;11.20;8.02;;;10.70;99.90;;;;;;5045476;28;20060;-50
2022/09/26 05:13:06;;;;;;;12.48;8.00;;;10.70;99.90;;;;;;5061477;28;20105;-50
2022/09/26 05:15:38;;;;;;;9.20;7.65;;;10.70;99.90;;;;;;5061272;28;20512;-49
2022/09/26 05:18:06;;;;;;;13.80;8.07;;;10.70;99.90;;;;;;5043137;28;20056;-49
2022/09/26 05:20:37;;;;;;;8.98;7.50;;;10.70;99.90;;;;;;5061185;28;20131;-50
2022/09/26 05:23:05;;;;;;;10.40;8.15;;;10.70;99.90;;;;;;5043335;28;20063;-50
2022/09/26 05:28:23;;;;;;;10.35;7.80;;;10.60;99.90;;;;;;5046192;28;20080;-48
2022/09/26 05:30:50;;;;;;;11.73;7.90;;;10.70;99.90;;;;;;5050113;28;20056;-47
2022/09/26 05:33:20;;;;;;;9.18;7.40;;;10.70;99.90;;;;;;5060820;28;20498;-48
2022/09/26 05:35:54;;;;;;;12.80;7.90;;;10.60;99.90;;;;;;5053728;28;20048;-47
2022/09/26 05:38:20;;;;;;;9.45;6.90;;;10.60;99.90;;;;;;5055950;28;20051;-48
2022/09/26 05:41:03;;;;;;;11.57;8.68;;;10.60;99.90;;;;;;5060405;28;20509;-50
2022/09/26 05:43:31;;;;;;;15.27;7.40;;;10.60;99.90;;;;;;5027181;28;20574;-50
2022/09/26 05:45:58;;;;;;;12.50;7.53;;;10.60;99.90;;;;;;5043104;28;20063;-49
2022/09/26 05:48:25;;;;;;;12.65;7.75;;;10.50;99.90;;;;;;5036960;28;20535;-47
2022/09/26 05:50:51;;;;;;;9.55;6.60;;;10.60;99.90;;;;;;5042461;28;20065;-48
2022/09/26 05:53:18;;;;;;;13.38;7.68;;;10.60;99.90;;;;;;5051171;28;20049;-49
2022/09/26 05:55:50;;;;;;;9.30;6.32;;;10.50;99.90;;;;;;5042259;28;20092;-48
2022/09/26 05:58:20;;;;;;;9.75;6.68;;;10.60;99.90;;;;;;5027749;28;20138;-48
2022/09/26 06:00:50;;;;;;;10.68;6.50;;;10.50;99.90;;;;;;5046588;28;20057;-50
2022/09/26 06:03:16;;;;;;;12.48;6.43;;;10.60;99.90;;;;;;5060845;28;20200;-48
2022/09/26 06:05:42;;;;;;;10.80;6.75;;;10.50;99.90;;;;;;5053934;28;20045;-48
2022/09/26 06:08:08;;;;;;;14.23;6.93;;;10.50;99.90;;;;;;5060838;28;20048;-48
2022/09/26 06:10:37;;;;;;;7.60;5.85;;;10.50;99.90;;;;;;5045208;28;20052;-48
2022/09/26 06:13:04;;;;;;;11.00;6.80;;;10.50;99.90;;;;;;5034110;28;20087;-51
2022/09/26 06:15:36;;;;;;;11.07;6.35;;;10.50;99.90;;;;;;5062473;28;20044;-49
2022/09/26 06:18:04;;;;;;;8.35;6.32;;;10.40;99.90;;;;;;5064946;28;20746;-50
2022/09/26 06:20:31;;;;;;;13.18;6.80;;;10.50;99.90;;;;;;5054883;28;20048;-50
2022/09/26 06:22:58;;;;;;;10.15;6.03;;;10.40;99.90;;;;;;5028327;28;20068;-50
2022/09/26 06:25:24;;;;;;;9.05;6.35;;;10.40;99.90;;;;;;5039866;28;20053;-48
2022/09/26 06:27:54;;;;;;;8.85;6.50;;;10.40;99.90;;;;;;5051368;28;20160;-48
2022/09/26 06:30:22;;;;;;;7.55;6.05;;;10.40;99.90;;;;;;5062905;28;20782;-50
2022/09/26 06:32:50;;;;;;;11.65;6.22;;;10.50;99.90;;;;;;5038925;28;20179;-51
2022/09/26 06:35:16;;;;;;;12.45;6.05;;;10.40;99.90;;;;;;5057409;28;20052;-51
2022/09/26 06:37:42;;;;;;;8.50;6.13;;;10.40;99.90;;;;;;5057670;28;20076;-49
2022/09/26 06:40:10;;;;;;;11.27;6.50;;;10.40;99.90;;;;;;5050012;28;20143;-50
2022/09/26 06:42:37;;;;;;;10.52;6.20;;;10.40;99.90;;;;;;5047984;28;20144;-49
2022/09/26 06:45:08;;;;;;;9.20;5.90;;;10.30;99.90;;;;;;5049540;28;20097;-48
2022/09/26 06:47:34;;;;;;;9.73;5.72;;;10.30;99.90;;;;;;5062964;28;20476;-47
2022/09/26 06:50:01;;;;;;;9.90;5.90;;;10.40;99.90;;;;;;5057424;28;20064;-50
2022/09/26 06:52:33;;;;;;;8.00;5.13;;;10.40;99.90;;;;;;5048088;28;20049;-48
2022/09/26 06:55:03;;;;;;;8.80;5.50;;;10.40;99.90;;;;;;5037715;28;20041;-49
2022/09/26 06:57:39;;;;;;;9.45;6.03;;;10.40;99.90;;;;;;5037367;28;20641;-47
2022/09/26 07:00:07;;;;;;;8.85;6.10;;;10.40;99.90;;;;;;5038951;28;20188;-50
2022/09/26 07:02:33;;;;;;;10.23;5.22;;;10.40;99.90;;;;;;5038492;28;20052;-47
2022/09/26 07:05:01;;;;;;;7.72;4.53;;;10.50;99.90;;;;;;5042729;28;20051;-50
2022/09/26 07:07:28;;;;;;;9.90;5.22;;;10.50;99.90;;;;;;5043531;28;20445;-49
2022/09/26 07:09:55;;;;;;;7.72;5.28;;;10.40;99.90;;;;;;5047073;28;20407;-50
2022/09/26 07:12:21;;;;;;;9.73;5.47;;;10.40;99.90;;;;;;5051697;28;20518;-51
2022/09/26 07:14:47;;;;;;;10.02;4.82;;;10.50;99.90;;;;;;5052070;28;20424;-51
2022/09/26 07:17:16;;;;;;;6.50;4.88;;;10.50;99.90;;;;;;5051731;28;20048;-48
2022/09/26 07:19:43;;;;;;;8.45;4.78;;;10.50;99.90;;;;;;5056344;28;20087;-48
2022/09/26 07:22:09;;;;;;;8.32;4.55;;;10.60;99.90;;;;;;5033365;28;20491;-50
2022/09/26 07:24:35;;;;;;;8.00;4.57;;;10.70;99.90;;;;;;5051795;28;20045;-48
2022/09/26 07:27:02;;;;;;;10.07;4.07;;;10.80;99.90;;;;;;5038535;28;20048;-48
2022/09/26 07:29:28;;;;;;;7.80;4.50;;;10.80;99.90;;;;;;5061579;28;20075;-50
2022/09/26 07:31:54;;;;;;;8.35;4.85;;;10.90;99.90;;;;;;5050614;28;20156;-50
2022/09/26 07:34:23;;;;;;;7.95;4.40;;;10.90;99.90;;;;;;5056954;28;20761;-50
2022/09/26 07:36:50;;;;;;;9.60;3.85;;;11.00;99.90;;;;;;5054728;28;20448;-51
2022/09/26 07:39:17;;;;;;;10.45;4.28;;;11.00;99.90;;;;;;5038894;28;20101;-51
2022/09/26 07:41:46;;;;;;;11.30;3.97;;;11.10;99.90;;;;;;5058984;28;20043;-50
2022/09/26 07:44:13;;;;;;;10.88;3.65;;;11.10;99.90;;;;;;5055494;28;20051;-51
2022/09/26 07:52:08;;;;;;;7.70;3.65;;;11.20;99.90;;;;;;5062602;28;20147;-49
2022/09/26 07:54:35;;;;;;;7.82;3.35;;;11.30;99.90;;;;;;5059913;28;20036;-50
2022/09/26 07:57:03;;;;;;;8.50;4.03;;;11.30;99.90;;;;;;5054247;28;20049;-48
2022/09/26 07:59:34;;;;;;;8.63;4.13;;;11.30;99.90;;;;;;5055882;28;20049;-49
2022/09/26 08:02:01;;;;;;;6.38;3.30;;;11.30;99.90;;;;;;5032713;28;20061;-51
2022/09/26 08:04:28;;;;;;;6.75;3.50;;;11.30;99.90;;;;;;5052146;28;20443;-49
2022/09/26 08:06:55;;;;;;;7.88;3.80;;;11.30;99.90;;;;;;5045375;28;20107;-48
2022/09/26 08:09:20;;;;;;;7.03;4.20;;;11.40;99.90;;;;;;5041364;28;20480;-49
2022/09/26 08:11:46;;;;;;;7.20;3.55;;;11.40;99.90;;;;;;5054901;28;20056;-48
2022/09/26 08:14:13;;;;;;;7.55;3.75;;;11.40;99.90;;;;;;5048566;28;20569;-50
2022/09/26 08:16:40;;;;;;;9.70;3.80;;;11.40;99.90;;;;;;5048652;28;20160;-50
2022/09/26 08:19:07;;;;;;;4.78;3.60;;;11.30;99.90;;;;;;5061836;28;20049;-49
2022/09/26 08:21:34;;;;;;;8.60;4.40;;;11.30;99.90;;;;;;5063198;28;20048;-50
2022/09/26 08:24:00;;;;;;;6.05;4.35;;;11.30;99.90;;;;;;5062283;28;20422;-49
2022/09/26 08:26:27;;;;;;;5.55;3.78;;;11.40;99.90;;;;;;5061875;28;20040;-50
2022/09/26 08:28:53;;;;;;;6.28;3.83;;;11.40;99.90;;;;;;5055970;28;20052;-52
2022/09/26 08:31:22;;;;;;;8.23;3.88;;;11.40;99.90;;;;;;5054808;28;20055;-57
2022/09/26 08:33:47;;;;;;;8.25;4.18;;;11.50;99.90;;;;;;5043076;28;20048;-51
2022/09/26 08:36:16;;;;;;;9.85;4.30;;;11.50;99.90;;;;;;5055299;28;20106;-48
2022/09/26 08:38:42;;;;;;;7.07;3.78;;;11.60;99.90;;;;;;5042560;28;20087;-49
2022/09/26 08:41:31;;;;;;;10.15;4.38;;;11.70;99.90;;;;;;5047675;28;20152;-52
2022/09/26 08:44:11;;;;;;;8.23;3.92;;;11.80;99.90;;;;;;5042538;28;20040;-52
2022/09/26 08:47:05;;;;;;;8.27;3.70;;;11.90;99.90;;;;;;5029734;28;20488;-49
2022/09/26 08:49:38;;;;;;;7.65;4.05;;;12.00;99.90;;;;;;5040726;28;20103;-49
2022/09/26 08:53:05;;;;;;;7.25;3.83;;;12.10;99.90;;;;;;5044380;28;20159;-51
2022/09/26 08:55:38;;;;;;;9.13;4.22;;;12.10;99.90;;;;;;4967710;28;20057;-51
2022/09/26 08:58:11;;;;;;;6.70;3.42;;;12.10;99.90;;;;;;4967195;28;20233;-53
2022/09/26 09:00:37;;;;;;;7.78;4.65;;;12.10;99.90;;;;;;4974350;28;20050;-52
2022/09/26 09:03:10;;;;;;;7.20;3.72;;;12.00;99.90;;;;;;4950791;28;20065;-50
2022/09/26 09:05:44;;;;;;;10.73;4.35;;;12.00;99.90;;;;;;4957179;28;20059;-51
2022/09/26 09:08:21;;;;;;;7.95;3.70;;;12.00;99.90;;;;;;4953699;28;20229;-49
2022/09/26 09:11:01;;;;;;;9.23;3.90;;;12.10;99.90;;;;;;4977830;28;20692;-51
2022/09/26 09:13:41;;;;;;;7.97;4.40;;;12.10;99.90;;;;;;4942911;28;20146;-51
2022/09/26 09:16:16;;;;;;;10.77;4.05;;;12.00;99.90;;;;;;4952003;28;20055;-50
2022/09/26 09:19:01;;;;;;;8.70;4.50;;;12.00;99.90;;;;;;4973880;28;20493;-50
2022/09/26 09:21:47;;;;;;;8.80;3.95;;;12.00;99.90;;;;;;4972138;28;20050;-49
2022/09/26 09:24:24;;;;;;;10.98;4.45;;;12.10;99.90;;;;;;4958313;28;20073;-50
2022/09/26 09:27:02;;;;;;;8.48;5.05;;;12.00;99.90;;;;;;4972303;28;20054;-49
2022/09/26 09:43:50;;;;;;;11.60;6.35;;;11.90;99.90;;;;;;5086883;27;20369;-54
2022/09/26 09:46:23;;;;;;;11.15;6.28;;;11.80;99.90;;;;;;5089677;28;20421;-54
2022/09/26 09:48:56;;;;;;;10.57;6.43;;;11.70;99.90;;;;;;5071743;28;20126;-50
2022/09/26 09:51:31;;;;;;;16.85;7.00;;;11.60;99.90;;;;;;5073783;28;20596;-52
2022/09/26 09:54:25;;;;;;;7.63;6.50;;;11.50;99.90;;;;;;5087935;28;20608;-53
2022/09/26 09:56:50;;;;;;;;;;;11.50;99.90;;;;;;5085682;28;20046;-53
2022/09/26 10:00:01;;;;;;;14.48;7.78;;;11.40;99.90;;;;;;5067183;28;19943;-51
2022/09/26 10:02:51;;;;;;;9.73;7.03;;;11.40;99.90;;;;;;5000518;28;20061;-55
2022/09/26 10:05:38;;;;;;;9.90;7.47;;;11.40;99.90;;;;;;4994414;28;20161;-53
2022/09/26 10:08:14;;;;;;;11.73;7.45;;;11.50;99.90;;;;;;4976746;28;20116;-49
2022/09/26 10:11:10;;;;;;;11.18;7.47;;;11.50;99.90;;;;;;5001857;28;20054;-53
2022/09/26 10:13:41;;;;;;;14.27;7.63;;;11.60;99.90;;;;;;4998850;28;20053;-55
2022/09/26 10:16:10;;;;;;;13.68;7.53;;;11.60;99.90;;;;;;4981916;28;20225;-52
2022/09/26 10:19:05;;;;;;;13.63;8.48;;;11.60;99.90;;;;;;5000598;28;20061;-53
2022/09/26 10:21:39;;;;;;;13.20;8.23;;;11.60;99.90;;;;;;4994077;28;20447;-53
2022/09/26 10:24:21;;;;;;;12.75;8.43;;;11.50;99.90;;;;;;5006563;28;20045;-49
2022/09/26 10:26:53;;;;;;;12.95;8.60;;;11.50;99.90;;;;;;5001051;28;20181;-52
2022/09/26 10:29:37;;;;;;;11.05;8.95;;;11.50;99.90;;;;;;4991690;28;20057;-54
2022/09/26 10:32:03;;;;;;;11.95;9.43;;;11.50;99.90;;;;;;4999855;28;20068;-53
2022/09/26 10:34:31;;;;;;;15.68;8.70;;;11.50;99.90;;;;;;4993785;28;20113;-52
2022/09/26 10:37:18;;;;;;;13.02;9.63;;;11.40;99.90;;;;;;5001991;28;20080;-53
2022/09/26 10:42:37;;;;;;;15.40;10.15;;;11.50;99.90;;;;;;5088241;28;20055;-53
2022/09/26 10:45:19;;;;;;;11.40;10.10;;;11.50;99.90;;;;;;5045153;28;20072;-53
2022/09/26 10:47:47;;;;;;;13.27;9.27;;;11.50;99.90;;;;;;5052232;28;20045;-53
2022/09/26 10:50:23;;;;;;;10.50;9.40;;;11.40;99.90;;;;;;5056210;28;20052;-53
2022/09/26 10:52:54;;;;;;;12.55;10.13;;;11.40;99.90;;;;;;5054993;28;20478;-53
2022/09/26 10:55:25;;;;;;;15.18;9.90;;;11.40;99.90;;;;;;5053293;28;20048;-51
2022/09/26 10:57:55;;;;;;;11.57;10.35;;;11.40;99.90;;;;;;5057074;28;20049;-56
2022/09/26 11:00:36;;;;;;;10.15;8.95;;;11.50;99.90;;;;;;5029901;28;20048;-50
2022/09/26 11:03:21;;;;;;;14.95;10.40;;;11.50;99.90;;;;;;5054440;28;20482;-53
2022/09/26 11:05:57;;;;;;;10.98;9.48;;;11.60;99.90;;;;;;5057065;28;20065;-52
2022/09/26 11:08:37;;;;;;;10.60;8.93;;;11.60;99.90;;;;;;5045764;28;20049;-52
2022/09/26 11:11:14;;;;;;;11.77;9.02;;;11.60;99.90;;;;;;5041938;28;20444;-53
2022/09/26 11:13:48;;;;;;;11.15;10.05;;;11.70;99.90;;;;;;5051732;28;20048;-52
2022/09/26 11:16:17;;;;;;;10.95;9.85;;;11.80;99.90;;;;;;5042944;28;20406;-55
2022/09/26 11:18:52;;;;;;;11.23;10.05;;;11.80;99.90;;;;;;5057052;28;20460;-53
2022/09/26 11:21:42;;;;;;;11.68;10.57;;;11.80;99.90;;;;;;5046138;28;20045;-56
2022/09/26 11:24:21;;;;;;;13.60;10.38;;;11.70;99.90;;;;;;5058241;28;20045;-53
2022/09/26 11:27:04;;;;;;;10.65;9.57;;;11.80;99.90;;;;;;5038965;28;20293;-54
2022/09/26 11:29:48;;;;;;;13.02;10.48;;;11.90;99.90;;;;;;5052790;28;20055;-55
2022/09/26 11:32:27;;;;;;;11.68;10.50;;;11.90;99.90;;;;;;5046101;28;20585;-54
2022/09/26 11:34:53;;;;;;;11.45;10.35;;;11.90;99.90;;;;;;5039290;28;20147;-54
2022/09/26 11:37:49;;;;;;;10.80;9.68;;;11.90;99.90;;;;;;5044906;28;20657;-55
2022/09/26 11:40:27;;;;;;;12.68;10.25;;;11.80;99.90;;;;;;5055547;28;20055;-54
2022/09/26 11:42:59;;;;;;;10.68;9.57;;;11.80;99.90;;;;;;5049888;28;20061;-53
2022/09/26 11:46:03;;;;;;;11.73;9.93;;;11.80;99.90;;;;;;5040789;28;20582;-54
2022/09/26 11:48:59;;;;;;;11.10;9.88;;;11.80;99.90;;;;;;5050464;28;20048;-52
2022/09/26 11:51:30;;;;;;;11.07;9.35;;;11.80;99.90;;;;;;5048994;28;20048;-55
2022/09/26 11:54:19;;;;;;;11.00;10.00;;;11.80;99.90;;;;;;5059176;28;20053;-53
2022/09/26 11:57:06;;;;;;;11.98;10.10;;;11.80;99.90;;;;;;5044875;28;20057;-55
2022/09/26 11:59:51;;;;;;;11.45;10.35;;;11.70;99.90;;;;;;5026753;28;20040;-55
2022/09/26 12:02:54;;;;;;;11.40;10.18;;;11.70;99.90;;;;;;5049488;28;20505;-53
2022/09/26 12:05:53;;;;;;;13.20;11.85;;;11.70;99.90;;;;;;5014936;28;20140;-53
2022/09/26 12:08:47;;;;;;;13.00;11.57;;;11.80;99.90;;;;;;5047254;28;20040;-55
2022/09/26 12:11:45;;;;;;;11.82;10.63;;;11.70;99.90;;;;;;5043027;28;20507;-54
2022/09/26 12:14:17;;;;;;;14.15;11.60;;;11.70;99.90;;;;;;4950190;28;20093;-55
2022/09/26 12:16:55;;;;;;;13.23;11.32;;;11.80;99.90;;;;;;4958668;28;20577;-55
2022/09/26 12:19:40;;;;;;;11.88;10.77;;;11.80;99.90;;;;;;4958592;28;20148;-51
2022/09/26 12:22:34;;;;;;;12.32;11.07;;;11.90;99.90;;;;;;4968943;28;20132;-53
2022/09/26 12:25:24;;;;;;;11.80;10.30;;;12.00;99.90;;;;;;4967618;28;20058;-52
2022/09/26 12:28:01;;;;;;;11.18;9.65;;;12.00;99.90;;;;;;4966182;28;20053;-54
2022/09/26 12:31:10;;;;;;;11.50;10.40;;;12.00;99.90;;;;;;4967760;28;20421;-55
2022/09/26 12:33:57;;;;;;;10.52;9.48;;;12.20;99.90;;;;;;4964695;28;20126;-57
2022/09/26 12:36:55;;;;;;;10.13;9.20;;;12.20;99.90;;;;;;4968782;28;20635;-55
2022/09/26 12:39:42;;;;;;;12.57;9.57;;;12.20;99.90;;;;;;4967175;28;20146;-51
2022/09/26 12:42:24;;;;;;;10.77;9.68;;;12.10;99.90;;;;;;4971372;28;20090;-54
2022/09/26 12:45:01;;;;;;;9.65;8.77;;;12.30;99.90;;;;;;4951745;28;20050;-54
2022/09/26 12:47:44;;;;;;;10.63;8.90;;;12.40;99.90;;;;;;4969087;28;20160;-53
2022/09/26 12:50:32;;;;;;;10.00;8.40;;;12.40;99.90;;;;;;4994323;28;20108;-55
2022/09/26 12:53:27;;;;;;;7.72;6.95;;;12.50;99.90;;;;;;5058596;28;20087;-54
2022/09/26 12:55:59;;;;;;;9.25;8.07;;;12.50;99.90;;;;;;5060644;28;20417;-54
2022/09/26 12:58:36;;;;;;;9.70;8.18;;;12.60;99.90;;;;;;5060430;28;20127;-55
2022/09/26 13:01:38;;;;;;;9.32;6.45;;;12.70;99.90;;;;;;5061292;28;20055;-54
2022/09/26 13:04:40;;;;;;;6.95;6.35;;;12.70;99.90;;;;;;4961796;28;20070;-53
2022/09/26 13:07:34;;;;;;;6.57;5.97;;;12.80;99.90;;;;;;4979148;28;20050;-51
2022/09/26 13:10:03;;;;;;;8.52;7.28;;;12.70;99.90;;;;;;4981929;28;20109;-55
2022/09/26 13:13:07;;;;;;;10.45;7.88;;;12.90;99.90;;;;;;4962704;28;20058;-55
2022/09/26 13:16:00;;;;;;;7.70;7.00;;;13.00;99.90;;;;;;4978867;28;20069;-55
2022/09/26 13:18:59;;;;;;;7.55;6.65;;;13.00;99.90;;;;;;4968946;28;20055;-56
2022/09/26 13:21:36;;;;;;;10.63;7.30;;;12.90;99.90;;;;;;4958781;28;20055;-55
2022/09/26 13:24:12;;;;;;;10.07;7.20;;;12.90;99.90;;;;;;4959389;28;20644;-54
2022/09/26 13:26:45;;;;;;;8.52;7.20;;;12.90;99.90;;;;;;4962217;28;20093;-54
2022/09/26 13:29:32;;;;;;;8.50;7.70;;;12.80;99.90;;;;;;4970558;28;20137;-55
2022/09/26 13:32:17;;;;;;;8.27;7.13;;;12.80;99.90;;;;;;4949366;28;20038;-54
2022/09/26 13:34:50;;;;;;;8.68;7.75;;;12.70;99.90;;;;;;4973904;28;20515;-54
2022/09/26 13:37:48;;;;;;;9.13;8.32;;;12.70;99.90;;;;;;4930468;28;20141;-55
2022/09/26 13:41:11;;;;;;;17.33;9.15;;;12.80;99.90;;;;;;4996071;28;20498;-56
2022/09/26 13:43:56;;;;;;;14.00;8.15;;;12.90;99.90;;;;;;5005206;28;20564;-55
2022/09/26 13:46:30;;;;;;;13.55;8.32;;;13.20;99.90;;;;;;5005664;28;20087;-52